createdAt,value
2018-07-19T00:01:18.631Z,6.07
2018-07-19T00:06:21.608Z,5.57
2018-07-19T00:11:24.592Z,5.80
2018-07-19T00:16:27.584Z,6.20
2018-07-19T00:21:30.563Z,6.30
2018-07-19T00:26:33.547Z,5.90
2018-07-19T00:31:36.511Z,6.40
2018-07-19T00:36:39.491Z,5.60
2018-07-19T00:41:44.807Z,5.80
2018-07-19T00:46:47.767Z,5.77
2018-07-19T00:51:50.794Z,6.30
2018-07-19T00:56:53.781Z,5.80
2018-07-19T01:01:56.760Z,5.70
2018-07-19T01:06:59.751Z,5.90
2018-07-19T01:12:02.844Z,6.00
2018-07-19T01:17:06.055Z,5.97
2018-07-19T01:22:09.100Z,5.90
2018-07-19T01:27:12.088Z,6.23
2018-07-19T01:32:15.055Z,5.60
2018-07-19T01:37:18.034Z,5.83
2018-07-19T01:42:35.374Z,5.90
2018-07-19T01:47:38.603Z,6.43
2018-07-19T01:52:41.584Z,5.20
2018-07-19T01:57:44.591Z,5.47
2018-07-19T02:02:47.905Z,5.83
2018-07-19T02:07:50.940Z,6.03
2018-07-19T02:12:53.991Z,5.90
2018-07-19T02:17:56.967Z,6.00
2018-07-19T02:22:59.954Z,6.20
2018-07-19T02:28:02.912Z,6.77
2018-07-19T02:33:05.909Z,6.10
2018-07-19T02:38:08.863Z,5.93
2018-07-19T02:43:11.832Z,6.40
2018-07-19T02:48:14.800Z,6.83
2018-07-19T02:53:17.808Z,5.43
2018-07-19T02:58:20.844Z,6.73
2018-07-19T03:03:23.874Z,7.07
2018-07-19T03:08:26.887Z,6.87
2018-07-19T03:13:29.900Z,7.10
2018-07-19T03:18:33.075Z,7.17
2018-07-19T03:23:36.061Z,7.43
2018-07-19T03:28:39.083Z,7.23
2018-07-19T03:33:42.056Z,7.77
2018-07-19T03:38:45.099Z,7.97
2018-07-19T03:43:48.103Z,6.70
2018-07-19T03:48:51.063Z,7.00
2018-07-19T03:53:54.091Z,6.97
2018-07-19T03:58:57.085Z,8.33
2018-07-19T04:04:00.056Z,7.47
2018-07-19T04:09:04.919Z,7.20
2018-07-19T04:14:07.925Z,7.50
2018-07-19T04:19:10.875Z,7.03
2018-07-19T04:24:13.856Z,6.57
2018-07-19T04:29:16.844Z,6.80
2018-07-19T04:34:19.929Z,6.23
2018-07-19T04:39:22.876Z,7.23
2018-07-19T04:44:25.876Z,7.90
2018-07-19T04:49:30.244Z,5.93
2018-07-19T04:54:33.307Z,6.23
2018-07-19T04:59:36.379Z,5.77
2018-07-19T05:04:39.423Z,5.37
2018-07-19T05:09:42.712Z,5.03
2018-07-19T05:14:45.864Z,5.00
2018-07-19T05:19:48.916Z,5.57
2018-07-19T05:24:51.917Z,5.77
2018-07-19T05:29:54.954Z,4.87
2018-07-19T05:34:58.000Z,5.03
2018-07-19T05:40:01.148Z,5.10
2018-07-19T05:45:04.580Z,5.20
2018-07-19T05:50:07.616Z,4.90
2018-07-19T05:55:10.648Z,4.63
2018-07-19T06:00:13.688Z,5.07
2018-07-19T06:05:16.698Z,5.10
2018-07-19T06:10:19.763Z,5.47
2018-07-19T06:15:22.795Z,5.87
2018-07-19T06:20:25.810Z,5.07
2018-07-19T06:25:29.075Z,5.30
2018-07-19T06:30:32.116Z,4.93
2018-07-19T06:35:35.143Z,4.80
2018-07-19T06:40:38.192Z,4.63
2018-07-19T06:45:41.493Z,4.77
2018-07-19T06:50:44.718Z,5.00
2018-07-19T06:55:47.756Z,4.43
2018-07-19T07:00:50.843Z,4.20
2018-07-19T07:05:53.963Z,4.63
2018-07-19T07:10:56.999Z,4.43
2018-07-19T07:16:00.029Z,4.93
2018-07-19T07:21:03.137Z,4.13
2018-07-19T07:26:06.193Z,3.97
2018-07-19T07:31:09.848Z,4.50
2018-07-19T07:36:12.916Z,4.57
2018-07-19T07:41:15.989Z,4.00
2018-07-19T07:46:19.019Z,3.90
2018-07-19T07:51:22.055Z,4.23
2018-07-19T07:56:25.064Z,4.17
2018-07-19T08:01:28.191Z,3.97
2018-07-19T08:06:31.203Z,3.83
2018-07-19T08:11:34.342Z,4.60
2018-07-19T08:16:37.433Z,4.30
2018-07-19T08:21:40.462Z,4.30
2018-07-19T08:26:43.629Z,3.90
2018-07-19T08:31:46.680Z,4.00
2018-07-19T08:36:49.772Z,4.63
2018-07-19T08:41:52.862Z,4.57
2018-07-19T08:46:55.856Z,4.47
2018-07-19T08:51:58.940Z,3.77
2018-07-19T08:57:02.024Z,3.97
2018-07-19T09:02:05.175Z,4.60
2018-07-19T09:07:08.248Z,3.80
2018-07-19T09:12:11.286Z,4.13
2018-07-19T09:17:14.349Z,4.17
2018-07-19T09:22:17.532Z,4.33
2018-07-19T09:27:21.200Z,4.80
2018-07-19T09:32:24.471Z,4.73
2018-07-19T09:37:27.923Z,5.57
2018-07-19T09:42:30.872Z,5.10
2018-07-19T09:47:33.956Z,5.43
2018-07-19T09:52:36.924Z,5.27
2018-07-19T09:57:39.935Z,5.13
2018-07-19T10:02:42.923Z,6.60
2018-07-19T10:07:45.978Z,5.63
2018-07-19T10:12:49.069Z,4.80
2018-07-19T10:17:52.047Z,5.33
2018-07-19T10:22:55.006Z,4.43
2018-07-19T10:27:57.991Z,5.50
2018-07-19T10:33:01.036Z,8.23
2018-07-19T10:38:04.042Z,8.47
2018-07-19T10:43:07.493Z,7.53
2018-07-19T10:48:10.515Z,7.90
2018-07-19T10:53:13.469Z,7.83
2018-07-19T10:58:16.445Z,8.17
2018-07-19T11:03:19.506Z,7.37
2018-07-19T11:08:22.487Z,6.03
2018-07-19T11:13:25.545Z,6.50
2018-07-19T11:18:28.470Z,5.30
2018-07-19T11:23:32.322Z,5.70
2018-07-19T11:28:35.325Z,5.60
2018-07-19T11:33:38.323Z,5.70
2018-07-19T11:38:41.253Z,5.90
2018-07-19T11:43:44.199Z,5.43
2018-07-19T11:48:47.172Z,5.43
2018-07-19T11:53:50.191Z,4.80
2018-07-19T11:58:53.117Z,5.80
2018-07-19T12:03:56.093Z,5.30
2018-07-19T12:08:59.102Z,5.53
2018-07-19T12:14:02.132Z,5.30
2018-07-19T12:19:05.782Z,5.00
2018-07-19T12:24:08.895Z,5.23
2018-07-19T12:29:11.883Z,4.80
2018-07-19T12:34:14.871Z,5.60
2018-07-19T12:39:17.869Z,5.23
2018-07-19T12:44:21.064Z,5.40
2018-07-19T12:49:24.956Z,4.97
2018-07-19T12:54:27.910Z,6.20
2018-07-19T12:59:31.105Z,4.83
2018-07-19T13:04:34.159Z,4.70
2018-07-19T13:09:37.160Z,5.57
2018-07-19T13:14:41.464Z,4.70
2018-07-19T13:19:44.680Z,4.73
2018-07-19T13:24:48.223Z,5.00
2018-07-19T13:29:51.433Z,4.60
2018-07-19T13:34:54.419Z,5.07
2018-07-19T13:39:57.462Z,5.03
2018-07-19T13:45:00.440Z,5.13
2018-07-19T13:50:03.848Z,4.97
2018-07-19T13:55:06.895Z,4.67
2018-07-19T14:00:09.973Z,4.47
2018-07-19T14:05:12.971Z,4.57
2018-07-19T14:10:15.922Z,4.70
2018-07-19T14:15:18.889Z,4.50
2018-07-19T14:20:21.847Z,4.50
2018-07-19T14:25:24.776Z,4.93
2018-07-19T14:30:27.719Z,4.57
2018-07-19T14:35:30.673Z,5.00
2018-07-19T14:40:33.671Z,4.60
2018-07-19T14:45:36.655Z,4.90
2018-07-19T14:50:39.552Z,4.90
2018-07-19T14:55:42.475Z,4.03
2018-07-19T15:00:45.421Z,4.63
2018-07-19T15:05:48.371Z,5.17
2018-07-19T15:10:51.319Z,5.30
2018-07-19T15:15:54.317Z,5.67
2018-07-19T15:20:57.300Z,4.80
2018-07-19T15:26:00.311Z,4.40
2018-07-19T15:31:03.323Z,5.40
2018-07-19T15:36:06.356Z,5.27
2018-07-19T15:41:09.347Z,4.80
2018-07-19T15:46:12.299Z,5.17
2018-07-19T15:51:15.338Z,4.63
2018-07-19T15:56:18.316Z,4.77
2018-07-19T16:01:21.336Z,5.77
2018-07-19T16:06:24.336Z,4.90
2018-07-19T16:11:27.307Z,4.73
2018-07-19T16:16:30.308Z,5.60
2018-07-19T16:21:33.283Z,4.40
2018-07-19T16:26:36.224Z,4.90
2018-07-19T16:31:39.170Z,5.00
2018-07-19T16:36:42.124Z,5.70
2018-07-19T16:41:45.136Z,4.30
2018-07-19T16:46:48.109Z,4.50
2018-07-19T16:51:51.183Z,9.97
2018-07-19T16:56:54.249Z,10.60
2018-07-19T17:01:57.280Z,8.40
2018-07-19T17:07:00.336Z,5.63
2018-07-19T17:12:03.395Z,4.80
2018-07-19T17:17:06.615Z,5.00
2018-07-19T17:22:09.665Z,4.10
2018-07-19T17:27:12.742Z,4.70
2018-07-19T17:32:16.015Z,4.40
2018-07-19T17:37:19.033Z,4.20
2018-07-19T17:42:22.145Z,4.57
2018-07-19T17:47:25.239Z,4.70
2018-07-19T17:52:28.285Z,4.43
2018-07-19T17:57:31.345Z,4.43
2018-07-19T18:02:34.396Z,4.57
2018-07-19T18:07:37.419Z,4.07
2018-07-19T18:12:40.456Z,4.77
2018-07-19T18:17:43.493Z,4.40
2018-07-19T18:22:46.738Z,5.07
2018-07-19T18:27:49.810Z,4.80
2018-07-19T18:32:52.881Z,5.10
2018-07-19T18:37:55.980Z,5.10
2018-07-19T18:42:59.009Z,4.23
2018-07-19T18:48:02.135Z,4.13
2018-07-19T18:53:05.173Z,4.23
2018-07-19T18:58:08.415Z,4.30
2018-07-19T19:03:11.667Z,4.60
2018-07-19T19:08:14.690Z,4.70
2018-07-19T19:13:18.001Z,5.80
2018-07-19T19:18:21.441Z,4.37
2018-07-19T19:23:24.531Z,5.50
2018-07-19T19:28:27.638Z,5.27
2018-07-19T19:33:30.585Z,4.23
2018-07-19T19:38:33.626Z,4.50
2018-07-19T19:43:36.651Z,4.87
2018-07-19T19:48:39.716Z,4.70
2018-07-19T19:53:43.004Z,5.20
2018-07-19T19:58:46.003Z,5.80
2018-07-19T20:03:48.908Z,4.77
2018-07-19T20:08:51.916Z,5.20
2018-07-19T20:13:55.009Z,5.37
2018-07-19T20:18:58.270Z,5.10
2018-07-19T20:24:01.582Z,5.43
2018-07-19T20:29:04.576Z,5.37
2018-07-19T20:34:07.901Z,4.57
2018-07-19T20:39:10.980Z,5.20
2018-07-19T20:44:14.125Z,6.73
2018-07-19T20:49:17.277Z,6.23
2018-07-19T20:54:20.512Z,5.87
2018-07-19T20:59:23.508Z,5.33
2018-07-19T21:04:26.544Z,6.30
2018-07-19T21:09:29.820Z,6.20
2018-07-19T21:14:32.831Z,5.80
2018-07-19T21:19:35.828Z,4.93
2018-07-19T21:24:39.240Z,5.47
2018-07-19T21:29:42.304Z,5.57
2018-07-19T21:34:45.320Z,5.70
2018-07-19T21:39:48.295Z,6.00
2018-07-19T21:44:51.381Z,6.00
2018-07-19T21:49:54.373Z,5.60
2018-07-19T21:54:57.394Z,6.00
2018-07-19T22:00:00.450Z,5.40
2018-07-19T22:05:03.567Z,5.40
2018-07-19T22:10:06.603Z,6.27
2018-07-19T22:15:10.069Z,7.07
2018-07-19T22:20:13.094Z,6.23
2018-07-19T22:25:16.083Z,5.60
2018-07-19T22:30:19.061Z,5.40
2018-07-19T22:35:22.037Z,6.70
2018-07-19T22:40:25.063Z,6.00
2018-07-19T22:45:28.072Z,6.20
2018-07-19T22:50:31.240Z,6.13
2018-07-19T22:55:34.243Z,6.17
2018-07-19T23:00:37.231Z,6.73
2018-07-19T23:05:40.205Z,6.10
2018-07-19T23:10:43.184Z,5.63
2018-07-19T23:15:46.567Z,5.53
2018-07-19T23:20:49.628Z,5.67
2018-07-19T23:25:52.835Z,6.53
2018-07-19T23:30:55.870Z,7.00
2018-07-19T23:36:33.110Z,6.17
2018-07-19T23:41:49.016Z,5.73
2018-07-19T23:46:56.823Z,6.40
2018-07-19T23:51:59.827Z,5.80
2018-07-19T23:57:02.791Z,7.00
